Hoytville, Pennsylvania
Current Conditions -  °F | °C
As of 1:35 PM on Monday 20 Oct 2014 (Local Time) from KN38 Reporting Station
Few Clouds Few Clouds  
Wind Chill: 50°   Ceiling: Unl
Heat Index: 50°   Visibility: 10mi
Dew Point: 37°   Wind: 17mph
Humidity: 62%   Direction: 190°S
Pressure: 29.91"   Gusts: NA
Location:  41.533°N, 77.3132°W
Report Text: KN38 201735Z AUTO 19015KT 10SM FEW090 FEW110 10/03 A2991 RMK AO2
Loading
Personal Weather Stations






























Interactive Weather Map
Tropical Storm Tracking
New forecast layout! Learn more

10-Day Weather Forecast

Advertisements
Track Severe Weather on mobile